Time;durP1;ratioP1;P1;durP2;ratioP2;P2;SDS_P1;SDS_P2;PMS_P1;PMS_P2;Temp;Humidity;BMP_temperature;BMP_pressure;BME280_temperature;BME280_humidity;BME280_pressure;Samples;Min_cycle;Max_cycle;Signal;HPM_P1;HPM_P2
2022/06/14 00:03:10;;;;;;;;;;;22.40;50.50;;;;;;5038386;28;19931;-66
2022/06/14 00:05:37;;;;;;;;;;;22.40;50.70;;;;;;5039830;28;20404;-66
2022/06/14 00:08:04;;;;;;;;;;;22.30;50.80;;;;;;5040587;28;20543;-68
2022/06/14 00:10:30;;;;;;;;;;;22.30;50.90;;;;;;5041209;28;19928;-66
2022/06/14 00:12:58;;;;;;;;;;;22.30;51.20;;;;;;5040533;28;19929;-68
2022/06/14 00:15:25;;;;;;;;;;;22.20;51.20;;;;;;5040021;28;19933;-69
2022/06/14 00:17:51;;;;;;;;;;;22.10;51.30;;;;;;5038998;28;19933;-69
2022/06/14 00:20:18;;;;;;;;;;;22.10;51.40;;;;;;5041943;28;19933;-69
2022/06/14 00:22:45;;;;;;;;;;;22.10;51.40;;;;;;5042497;28;19935;-67
2022/06/14 00:25:19;;;;;;;;;;;22.00;51.40;;;;;;5040152;28;19996;-67
2022/06/14 00:27:45;;;;;;;;;;;22.00;51.50;;;;;;5037496;28;19943;-66
2022/06/14 00:30:13;;;;;;;;;;;21.90;51.40;;;;;;5040377;28;19928;-64
2022/06/14 00:32:40;;;;;;;;;;;21.90;51.50;;;;;;5038531;28;19936;-65
2022/06/14 00:35:07;;;;;;;;;;;21.80;51.60;;;;;;5041743;28;19933;-67
2022/06/14 00:37:34;;;;;;;;;;;21.80;51.80;;;;;;5038286;28;20400;-68
2022/06/14 00:40:02;;;;;;;;;;;21.80;51.70;;;;;;5041446;28;19936;-66
2022/06/14 00:42:28;;;;;;;;;;;21.70;51.70;;;;;;5038348;28;19928;-70
2022/06/14 00:45:05;;;;;;;;;;;21.70;51.70;;;;;;5042724;28;19939;-68
2022/06/14 00:47:36;;;;;;;;;;;21.60;51.60;;;;;;5041419;28;19940;-68
2022/06/14 00:50:05;;;;;;;;;;;21.60;51.70;;;;;;5045350;28;20512;-69
2022/06/14 00:52:33;;;;;;;;;;;21.60;51.90;;;;;;5043103;28;19974;-66
2022/06/14 00:55:02;;;;;;;;;;;21.50;51.80;;;;;;5040876;28;19983;-67
2022/06/14 00:57:33;;;;;;;;;;;21.50;51.70;;;;;;5044199;28;19935;-68
2022/06/14 01:00:02;;;;;;;;;;;21.40;51.70;;;;;;5041376;28;20444;-66
2022/06/14 01:02:30;;;;;;;;;;;21.30;51.80;;;;;;5044084;28;20607;-69
2022/06/14 01:05:00;;;;;;;;;;;21.30;51.80;;;;;;5041598;28;19936;-68
2022/06/14 01:07:28;;;;;;;;;;;21.30;51.80;;;;;;5043875;28;19956;-69
2022/06/14 01:09:57;;;;;;;;;;;21.20;51.90;;;;;;5044270;28;19939;-67
2022/06/14 01:12:27;;;;;;;;;;;21.20;52.10;;;;;;5042047;28;20392;-66
2022/06/14 01:14:56;;;;;;;;;;;21.10;52.00;;;;;;5043702;28;20056;-66
2022/06/14 01:17:23;;;;;;;;;;;21.10;52.00;;;;;;5042426;28;20392;-66
2022/06/14 01:19:49;;;;;;;;;;;21.10;52.10;;;;;;5043998;28;20615;-67
2022/06/14 01:22:25;;;;;;;;;;;21.00;52.10;;;;;;5044894;28;19929;-66
2022/06/14 01:24:52;;;;;;;;;;;20.90;52.10;;;;;;5043821;28;19929;-67
2022/06/14 01:27:19;;;;;;;;;;;21.00;52.20;;;;;;5042596;28;19927;-68
2022/06/14 01:29:49;;;;;;;;;;;20.90;52.10;;;;;;5043222;28;19935;-67
2022/06/14 01:32:16;;;;;;;;;;;20.80;52.20;;;;;;5041167;28;19963;-66
2022/06/14 01:34:44;;;;;;;;;;;20.80;52.30;;;;;;5040788;28;19978;-69
2022/06/14 01:37:11;;;;;;;;;;;20.80;52.20;;;;;;5042858;28;19974;-66
2022/06/14 01:39:39;;;;;;;;;;;20.70;52.30;;;;;;5043114;28;19929;-67
2022/06/14 01:42:10;;;;;;;;;;;20.70;52.20;;;;;;5043159;28;19936;-66
2022/06/14 01:44:41;;;;;;;;;;;20.60;52.30;;;;;;5041785;28;20397;-66
2022/06/14 01:47:18;;;;;;;;;;;20.60;52.40;;;;;;5042040;28;20301;-66
2022/06/14 01:52:46;;;;;;;;;;;20.50;52.50;;;;;;5042549;28;20296;-65
2022/06/14 01:55:18;;;;;;;;;;;20.50;52.50;;;;;;5038727;28;20618;-67
2022/06/14 01:57:50;;;;;;;;;;;20.40;52.60;;;;;;5042235;28;19929;-66
2022/06/14 02:00:22;;;;;;;;;;;20.40;52.60;;;;;;5040874;28;19936;-66
2022/06/14 02:02:52;;;;;;;;;;;20.30;52.60;;;;;;5040508;28;19924;-68
2022/06/14 02:05:20;;;;;;;;;;;20.30;52.70;;;;;;5040925;28;19936;-67
2022/06/14 02:07:51;;;;;;;;;;;20.30;52.80;;;;;;5043937;28;19928;-67
2022/06/14 02:10:22;;;;;;;;;;;20.20;52.70;;;;;;5042869;28;20233;-67
2022/06/14 02:12:51;;;;;;;;;;;20.20;52.90;;;;;;5041637;28;19936;-68
2022/06/14 02:15:23;;;;;;;;;;;20.20;52.90;;;;;;5040284;28;19932;-66
2022/06/14 02:17:51;;;;;;;;;;;20.10;53.10;;;;;;5037503;28;20031;-67
2022/06/14 02:20:20;;;;;;;;;;;20.00;53.10;;;;;;5041971;28;19929;-69
2022/06/14 02:22:48;;;;;;;;;;;20.00;53.20;;;;;;5043277;28;19966;-67
2022/06/14 02:25:16;;;;;;;;;;;20.00;53.30;;;;;;5042271;28;19959;-67
2022/06/14 02:27:49;;;;;;;;;;;20.00;53.30;;;;;;5038583;28;20416;-68
2022/06/14 02:30:17;;;;;;;;;;;19.90;53.30;;;;;;5041603;28;19932;-67
2022/06/14 02:32:46;;;;;;;;;;;19.90;53.30;;;;;;5039548;28;19929;-67
2022/06/14 02:35:14;;;;;;;;;;;19.90;53.50;;;;;;5042534;28;19929;-68
2022/06/14 02:37:45;;;;;;;;;;;19.80;53.50;;;;;;5042379;28;19936;-66
2022/06/14 02:40:16;;;;;;;;;;;19.80;53.60;;;;;;5042848;28;19974;-69
2022/06/14 02:42:48;;;;;;;;;;;19.70;53.70;;;;;;5041522;28;19948;-69
2022/06/14 02:45:17;;;;;;;;;;;19.70;53.70;;;;;;5037533;28;20385;-66
2022/06/14 02:47:46;;;;;;;;;;;19.60;53.70;;;;;;5040688;28;19928;-66
2022/06/14 02:50:17;;;;;;;;;;;19.60;53.70;;;;;;5041286;28;19929;-68
2022/06/14 02:52:47;;;;;;;;;;;19.60;53.80;;;;;;5041870;28;19929;-67
2022/06/14 02:55:17;;;;;;;;;;;19.50;53.90;;;;;;5041301;28;19935;-66
2022/06/14 02:57:48;;;;;;;;;;;19.50;53.90;;;;;;5040677;28;19928;-69
2022/06/14 03:00:16;;;;;;;;;;;19.50;53.90;;;;;;5041215;28;19929;-66
2022/06/14 03:02:44;;;;;;;;;;;19.40;54.00;;;;;;5042074;28;19936;-69
2022/06/14 03:05:25;;;;;;;;;;;19.40;54.00;;;;;;5040002;28;19929;-66
2022/06/14 03:07:54;;;;;;;;;;;19.30;54.00;;;;;;5042069;28;19935;-69
2022/06/14 03:10:20;;;;;;;;;;;19.30;54.00;;;;;;5042166;28;19933;-68
2022/06/14 03:12:52;;;;;;;;;;;19.30;54.10;;;;;;5039557;28;20657;-68
2022/06/14 03:15:24;;;;;;;;;;;19.20;54.20;;;;;;5037937;28;19936;-66
2022/06/14 03:17:54;;;;;;;;;;;19.20;54.20;;;;;;5040808;28;20352;-69
2022/06/14 03:20:26;;;;;;;;;;;19.20;54.30;;;;;;5042328;28;19929;-70
2022/06/14 03:22:56;;;;;;;;;;;19.10;54.30;;;;;;5039750;28;19939;-67
2022/06/14 03:25:24;;;;;;;;;;;19.10;54.40;;;;;;5042994;28;19936;-67
2022/06/14 03:27:55;;;;;;;;;;;19.10;54.60;;;;;;5039667;28;19932;-67
2022/06/14 03:30:25;;;;;;;;;;;19.00;54.50;;;;;;5041240;28;19932;-68
2022/06/14 03:32:55;;;;;;;;;;;19.00;54.60;;;;;;5040912;28;20413;-68
2022/06/14 03:35:25;;;;;;;;;;;19.00;54.80;;;;;;5042072;28;19933;-69
2022/06/14 03:37:52;;;;;;;;;;;18.90;54.70;;;;;;5041102;28;19933;-68
2022/06/14 03:40:19;;;;;;;;;;;18.90;54.70;;;;;;5042696;28;19928;-66
2022/06/14 03:42:46;;;;;;;;;;;18.90;54.90;;;;;;5040556;28;20316;-68
2022/06/14 03:45:16;;;;;;;;;;;18.80;54.80;;;;;;5041134;28;19929;-65
2022/06/14 03:47:43;;;;;;;;;;;18.80;54.90;;;;;;5039569;28;19936;-69
2022/06/14 03:50:11;;;;;;;;;;;18.80;55.00;;;;;;5042302;28;19937;-66
2022/06/14 03:52:49;;;;;;;;;;;18.70;55.00;;;;;;5039861;28;19933;-66
2022/06/14 03:55:23;;;;;;;;;;;18.70;55.10;;;;;;5037266;28;20649;-68
2022/06/14 03:57:56;;;;;;;;;;;18.60;55.10;;;;;;5040734;28;19933;-65
2022/06/14 04:00:30;;;;;;;;;;;18.60;55.20;;;;;;5040363;28;19929;-67
2022/06/14 04:03:01;;;;;;;;;;;18.60;55.30;;;;;;5039232;28;20309;-71
2022/06/14 04:05:38;;;;;;;;;;;18.50;55.30;;;;;;5040480;28;19955;-68
2022/06/14 04:08:09;;;;;;;;;;;18.50;55.30;;;;;;5040472;28;20427;-66
2022/06/14 04:10:39;;;;;;;;;;;18.50;55.40;;;;;;5038242;28;20281;-66
2022/06/14 04:13:11;;;;;;;;;;;18.50;55.50;;;;;;5038351;28;19929;-67
2022/06/14 04:15:43;;;;;;;;;;;18.40;55.60;;;;;;5038616;28;19939;-67
2022/06/14 04:21:05;;;;;;;;;;;18.40;55.60;;;;;;5043833;28;19971;-68
2022/06/14 04:23:35;;;;;;;;;;;18.30;55.80;;;;;;5046002;28;20347;-67
2022/06/14 04:26:07;;;;;;;;;;;18.30;56.00;;;;;;5045526;28;20375;-67
2022/06/14 04:28:39;;;;;;;;;;;18.30;56.00;;;;;;5044337;28;19958;-69
2022/06/14 04:31:11;;;;;;;;;;;18.20;55.90;;;;;;5043965;28;19929;-66
2022/06/14 04:33:42;;;;;;;;;;;18.20;56.00;;;;;;5045452;28;19933;-67
2022/06/14 04:36:11;;;;;;;;;;;18.20;56.20;;;;;;5044370;28;19933;-65
2022/06/14 04:38:41;;;;;;;;;;;18.20;56.20;;;;;;5045117;28;19928;-66
2022/06/14 04:41:09;;;;;;;;;;;18.20;56.30;;;;;;5045204;28;19937;-65
2022/06/14 04:43:39;;;;;;;;;;;18.10;56.30;;;;;;5044899;28;19928;-68
2022/06/14 04:46:10;;;;;;;;;;;18.10;56.40;;;;;;5041662;28;19952;-68
2022/06/14 04:48:39;;;;;;;;;;;18.10;56.60;;;;;;5042716;28;19935;-65
2022/06/14 04:51:07;;;;;;;;;;;18.10;56.70;;;;;;5044622;28;19929;-67
2022/06/14 04:53:36;;;;;;;;;;;18.00;57.20;;;;;;5044301;28;19928;-69
2022/06/14 04:56:05;;;;;;;;;;;18.00;56.80;;;;;;5036057;28;19929;-67
2022/06/14 04:58:45;;;;;;;;;;;18.00;56.90;;;;;;5044655;28;19933;-66
2022/06/14 05:01:16;;;;;;;;;;;18.00;57.00;;;;;;5044011;28;20700;-66
2022/06/14 05:03:54;;;;;;;;;;;17.90;57.10;;;;;;5043593;28;19929;-66
2022/06/14 05:06:24;;;;;;;;;;;17.90;57.10;;;;;;5041327;28;20414;-70
2022/06/14 05:08:54;;;;;;;;;;;17.80;57.10;;;;;;5044279;28;19929;-67
2022/06/14 05:11:21;;;;;;;;;;;17.90;57.30;;;;;;5042879;28;19929;-66
2022/06/14 05:13:52;;;;;;;;;;;17.90;57.30;;;;;;5043006;28;20785;-69
2022/06/14 05:16:23;;;;;;;;;;;17.80;57.30;;;;;;5043960;28;20387;-69
2022/06/14 05:18:51;;;;;;;;;;;17.80;57.50;;;;;;5041509;28;19935;-65
2022/06/14 05:21:20;;;;;;;;;;;17.80;57.50;;;;;;5044435;28;19973;-69
2022/06/14 05:23:48;;;;;;;;;;;17.80;57.50;;;;;;5044267;28;19929;-68
2022/06/14 05:26:19;;;;;;;;;;;17.80;57.60;;;;;;5038801;28;19983;-66
2022/06/14 05:28:50;;;;;;;;;;;17.80;57.70;;;;;;5043488;28;19933;-68
2022/06/14 05:31:19;;;;;;;;;;;17.80;57.70;;;;;;5042404;28;19933;-65
2022/06/14 05:33:53;;;;;;;;;;;17.70;63.10;;;;;;5047396;28;19928;-66
2022/06/14 05:36:23;;;;;;;;;;;17.50;63.60;;;;;;5043581;28;19986;-69
2022/06/14 05:38:52;;;;;;;;;;;17.50;63.50;;;;;;5044889;28;19933;-66
2022/06/14 05:41:23;;;;;;;;;;;17.50;63.10;;;;;;5043993;28;20498;-67
2022/06/14 05:43:50;;;;;;;;;;;17.40;62.60;;;;;;5043162;28;19948;-69
2022/06/14 05:46:21;;;;;;;;;;;17.50;62.40;;;;;;5041712;28;19999;-66
2022/06/14 05:48:51;;;;;;;;;;;17.50;61.90;;;;;;5040663;28;19935;-67
2022/06/14 05:51:19;;;;;;;;;;;17.50;61.60;;;;;;5044715;28;19929;-70
2022/06/14 05:53:48;;;;;;;;;;;17.50;61.30;;;;;;5043685;28;19933;-65
2022/06/14 05:56:19;;;;;;;;;;;17.60;61.20;;;;;;5042216;28;19936;-68
2022/06/14 05:58:49;;;;;;;;;;;17.60;61.00;;;;;;5043949;28;19932;-69
2022/06/14 06:01:17;;;;;;;;;;;17.60;62.80;;;;;;5043357;28;19936;-67
2022/06/14 06:03:45;;;;;;;;;;;17.70;63.00;;;;;;5040361;28;19928;-69
2022/06/14 06:06:14;;;;;;;;;;;17.60;62.90;;;;;;5043901;28;19928;-69
2022/06/14 06:08:42;;;;;;;;;;;17.70;63.00;;;;;;5043370;28;19933;-66
2022/06/14 06:11:11;;;;;;;;;;;17.80;62.90;;;;;;5040211;28;20607;-67
2022/06/14 06:13:39;;;;;;;;;;;17.80;62.40;;;;;;5040315;28;19929;-68
2022/06/14 06:16:09;;;;;;;;;;;17.80;62.10;;;;;;5040675;28;19979;-66
2022/06/14 06:18:39;;;;;;;;;;;17.90;62.30;;;;;;5041600;28;19985;-66
2022/06/14 06:21:08;;;;;;;;;;;17.90;61.80;;;;;;5042929;28;19936;-66
2022/06/14 06:23:39;;;;;;;;;;;17.90;61.20;;;;;;5044042;28;19944;-64
2022/06/14 06:26:05;;;;;;;;;;;18.00;61.20;;;;;;5040683;28;19928;-67
2022/06/14 06:28:35;;;;;;;;;;;17.90;60.80;;;;;;5043318;28;19935;-66
2022/06/14 06:31:04;;;;;;;;;;;18.00;60.60;;;;;;5040769;28;20128;-66
2022/06/14 06:33:33;;;;;;;;;;;17.90;60.30;;;;;;5043676;28;20007;-66
2022/06/14 06:36:04;;;;;;;;;;;18.00;60.30;;;;;;5041166;28;19936;-67
2022/06/14 06:38:36;;;;;;;;;;;18.00;60.10;;;;;;5043593;28;19929;-65
2022/06/14 06:43:52;;;;;;;;;;;18.00;59.70;;;;;;5029463;28;19935;-70
2022/06/14 06:46:21;;;;;;;;;;;18.10;60.80;;;;;;5039906;28;19933;-68
2022/06/14 06:48:51;;;;;;;;;;;18.10;60.40;;;;;;5040800;28;20708;-69
2022/06/14 06:51:22;;;;;;;;;;;18.20;60.10;;;;;;5036795;28;20002;-66
2022/06/14 06:53:51;;;;;;;;;;;18.20;59.70;;;;;;5036364;28;20213;-67
2022/06/14 06:56:22;;;;;;;;;;;18.30;59.40;;;;;;5035606;28;19936;-68
2022/06/14 06:58:52;;;;;;;;;;;18.40;59.00;;;;;;5039778;28;19933;-68
2022/06/14 07:01:21;;;;;;;;;;;18.50;58.60;;;;;;5037097;28;19924;-69
2022/06/14 07:03:49;;;;;;;;;;;18.60;58.50;;;;;;5037581;28;19939;-70
2022/06/14 07:06:19;;;;;;;;;;;18.70;58.20;;;;;;5039737;28;19933;-67
2022/06/14 07:08:52;;;;;;;;;;;18.70;58.00;;;;;;5039538;28;20036;-67
2022/06/14 07:11:23;;;;;;;;;;;18.80;57.80;;;;;;5039145;28;19940;-67
2022/06/14 07:13:52;;;;;;;;;;;18.90;57.50;;;;;;5037686;28;19940;-70
2022/06/14 07:16:21;;;;;;;;;;;18.90;57.40;;;;;;5039724;28;20966;-68
2022/06/14 07:18:51;;;;;;;;;;;18.90;57.10;;;;;;5039701;28;19955;-69
2022/06/14 07:21:20;;;;;;;;;;;19.00;57.00;;;;;;5040554;28;19968;-68
2022/06/14 07:23:50;;;;;;;;;;;19.10;56.90;;;;;;5040104;28;19940;-70
2022/06/14 07:26:20;;;;;;;;;;;19.10;56.80;;;;;;5038930;28;20011;-66
2022/06/14 07:28:52;;;;;;;;;;;19.10;56.60;;;;;;5038702;28;19928;-65
2022/06/14 07:31:23;;;;;;;;;;;19.20;56.60;;;;;;5037995;28;20368;-66
2022/06/14 07:33:50;;;;;;;;;;;19.30;56.40;;;;;;5036912;28;19932;-67
2022/06/14 07:36:21;;;;;;;;;;;19.30;56.30;;;;;;5038822;28;20297;-66
2022/06/14 07:38:49;;;;;;;;;;;19.30;56.20;;;;;;5036619;28;19929;-68
2022/06/14 07:41:22;;;;;;;;;;;19.30;56.10;;;;;;5039218;28;19929;-66
2022/06/14 07:43:54;;;;;;;;;;;19.40;56.00;;;;;;5037733;28;19933;-68
2022/06/14 07:46:26;;;;;;;;;;;19.50;56.00;;;;;;5034646;28;19964;-68
2022/06/14 07:48:56;;;;;;;;;;;19.50;55.90;;;;;;5036995;28;19982;-66
2022/06/14 07:51:26;;;;;;;;;;;19.50;55.80;;;;;;5039949;28;20373;-68
2022/06/14 07:53:58;;;;;;;;;;;19.60;55.80;;;;;;5036028;28;19933;-67
2022/06/14 07:56:27;;;;;;;;;;;19.60;55.80;;;;;;5036763;28;19936;-67
2022/06/14 07:58:58;;;;;;;;;;;19.70;55.70;;;;;;5033168;28;19929;-67
2022/06/14 08:01:29;;;;;;;;;;;19.70;55.60;;;;;;5037617;28;19960;-68
2022/06/14 08:04:00;;;;;;;;;;;19.70;55.60;;;;;;5035080;28;20024;-70
2022/06/14 08:06:29;;;;;;;;;;;19.70;55.60;;;;;;5039713;28;19995;-68
2022/06/14 08:08:58;;;;;;;;;;;19.80;55.60;;;;;;5037273;28;19933;-68
2022/06/14 08:11:29;;;;;;;;;;;19.80;55.50;;;;;;5039847;28;19925;-66
2022/06/14 08:13:59;;;;;;;;;;;19.80;55.30;;;;;;5039440;28;19971;-70
2022/06/14 08:16:26;;;;;;;;;;;19.90;55.30;;;;;;5039661;28;19929;-68
2022/06/14 08:18:55;;;;;;;;;;;19.90;55.30;;;;;;5038955;28;19936;-68
2022/06/14 08:21:24;;;;;;;;;;;20.00;55.20;;;;;;5040080;28;19929;-67
2022/06/14 08:23:54;;;;;;;;;;;20.00;55.10;;;;;;5040957;28;19933;-67
2022/06/14 08:26:22;;;;;;;;;;;20.00;54.90;;;;;;5041362;28;19994;-70
2022/06/14 08:28:51;;;;;;;;;;;20.10;54.90;;;;;;5039941;28;20702;-67
2022/06/14 08:31:21;;;;;;;;;;;20.10;54.70;;;;;;5040025;28;20309;-68
2022/06/14 08:33:52;;;;;;;;;;;20.10;54.70;;;;;;5039289;28;19940;-68
2022/06/14 08:36:21;;;;;;;;;;;20.10;54.50;;;;;;5040440;28;20543;-69
2022/06/14 08:38:50;;;;;;;;;;;20.20;54.40;;;;;;5036281;28;19932;-69
2022/06/14 08:41:37;;;;;;;;;;;20.20;54.20;;;;;;5039525;28;20103;-69
2022/06/14 08:44:08;;;;;;;;;;;20.20;54.10;;;;;;5028483;28;19936;-68
2022/06/14 08:46:39;;;;;;;;;;;20.30;53.90;;;;;;5038972;28;19933;-68
2022/06/14 08:49:10;;;;;;;;;;;20.30;53.60;;;;;;5037599;28;19933;-67
2022/06/14 08:51:41;;;;;;;;;;;20.30;53.40;;;;;;5037658;28;19929;-67
2022/06/14 08:54:38;;;;;;;;;;;20.40;53.40;;;;;;5039340;28;19939;-67
2022/06/14 08:57:08;;;;;;;;;;;20.40;53.20;;;;;;4975763;28;19933;-69
2022/06/14 08:59:53;;;;;;;;;;;20.40;53.00;;;;;;5027980;28;20010;-67
2022/06/14 09:02:32;;;;;;;;;;;20.50;53.00;;;;;;5039560;28;19978;-68
2022/06/14 09:05:29;;;;;;;;;;;20.50;52.90;;;;;;5040259;28;19925;-69
2022/06/14 09:08:07;;;;;;;;;;;20.60;53.00;;;;;;4981239;28;19961;-67
2022/06/14 09:10:42;;;;;;;;;;;20.60;52.80;;;;;;5033234;28;20296;-69
2022/06/14 09:13:28;;;;;;;;;;;20.70;52.70;;;;;;5043681;28;21100;-68
2022/06/14 09:16:12;;;;;;;;;;;20.70;52.70;;;;;;5040865;28;20404;-68
2022/06/14 09:18:49;;;;;;;;;;;20.70;52.50;;;;;;5040907;28;19929;-67
2022/06/14 09:21:21;;;;;;;;;;;20.80;52.40;;;;;;5040221;28;19982;-65
2022/06/14 09:23:55;;;;;;;;;;;20.80;52.20;;;;;;5043149;28;19983;-67
2022/06/14 09:26:29;;;;;;;;;;;20.90;52.20;;;;;;5044195;28;20335;-67
2022/06/14 09:29:14;;;;;;;;;;;20.90;52.10;;;;;;5040628;28;20324;-69
2022/06/14 09:31:49;;;;;;;;;;;20.90;51.80;;;;;;5042058;28;20507;-70
2022/06/14 09:34:27;;;;;;;;;;;21.00;51.80;;;;;;5042630;28;19932;-67
2022/06/14 09:37:11;;;;;;;;;;;21.10;51.80;;;;;;5042905;28;19935;-69
2022/06/14 09:39:46;;;;;;;;;;;21.10;51.70;;;;;;5043246;28;19928;-67
2022/06/14 09:42:37;;;;;;;;;;;21.20;51.60;;;;;;5040414;28;20263;-71
2022/06/14 09:45:08;;;;;;;;;;;21.30;51.40;;;;;;5041410;28;19928;-70
2022/06/14 09:47:58;;;;;;;;;;;21.30;51.30;;;;;;5041765;28;20413;-66
2022/06/14 09:50:38;;;;;;;;;;;21.40;51.10;;;;;;5042249;28;19940;-70
2022/06/14 09:53:27;;;;;;;;;;;21.40;51.10;;;;;;5042445;28;19979;-67
2022/06/14 09:56:10;;;;;;;;;;;21.50;51.00;;;;;;5041382;28;19936;-67
2022/06/14 09:59:01;;;;;;;;;;;21.50;50.90;;;;;;5043110;28;20443;-66
2022/06/14 10:01:33;;;;;;;;;;;21.70;51.30;;;;;;5042172;28;19932;-70
2022/06/14 10:04:10;;;;;;;;;;;21.70;51.10;;;;;;5041164;28;20413;-68
2022/06/14 10:06:52;;;;;;;;;;;21.80;50.60;;;;;;5042864;28;19986;-68
2022/06/14 10:09:27;;;;;;;;;;;21.80;50.00;;;;;;5038755;28;19929;-70
2022/06/14 10:12:00;;;;;;;;;;;21.90;49.60;;;;;;5037471;28;19936;-67
2022/06/14 10:14:42;;;;;;;;;;;22.00;49.50;;;;;;5041757;28;20380;-70
2022/06/14 10:17:14;;;;;;;;;;;22.10;49.50;;;;;;5040243;28;19929;-66
2022/06/14 10:19:53;;;;;;;;;;;22.10;49.20;;;;;;5039765;28;19941;-67
2022/06/14 10:22:23;;;;;;;;;;;22.20;49.00;;;;;;5042561;28;20400;-66
2022/06/14 10:24:55;;;;;;;;;;;22.30;49.00;;;;;;5044460;28;19928;-67
2022/06/14 10:30:17;;;;;;;;;;;22.40;48.90;;;;;;5041888;28;20351;-66
2022/06/14 10:33:01;;;;;;;;;;;22.50;48.80;;;;;;5040697;28;19932;-67
2022/06/14 10:35:32;;;;;;;;;;;22.50;48.90;;;;;;5031321;28;20379;-69
2022/06/14 10:38:12;;;;;;;;;;;22.60;48.90;;;;;;5041604;28;19936;-71
2022/06/14 10:40:45;;;;;;;;;;;22.60;48.80;;;;;;5042038;28;19951;-70
2022/06/14 10:43:15;;;;;;;;;;;22.80;48.70;;;;;;5042474;28;19952;-67
2022/06/14 10:45:44;;;;;;;;;;;22.80;48.50;;;;;;5037762;28;19932;-66
2022/06/14 10:48:18;;;;;;;;;;;22.90;47.90;;;;;;5041821;28;19933;-68
2022/06/14 10:50:57;;;;;;;;;;;23.00;47.90;;;;;;5041403;28;20610;-67
2022/06/14 10:53:29;;;;;;;;;;;23.00;47.60;;;;;;5040112;28;19925;-70
2022/06/14 10:56:03;;;;;;;;;;;23.10;47.60;;;;;;5038174;28;19928;-67
2022/06/14 10:58:41;;;;;;;;;;;23.20;47.80;;;;;;5040762;28;19979;-67
2022/06/14 11:01:14;;;;;;;;;;;23.20;47.60;;;;;;5041818;28;19939;-67
2022/06/14 11:03:46;;;;;;;;;;;23.30;47.70;;;;;;5035727;28;20672;-68
2022/06/14 11:06:21;;;;;;;;;;;23.40;47.80;;;;;;5037553;28;19928;-70
2022/06/14 11:08:53;;;;;;;;;;;23.40;47.70;;;;;;5038549;28;19991;-69
2022/06/14 11:11:32;;;;;;;;;;;23.50;47.70;;;;;;5042404;28;19931;-66
2022/06/14 11:14:05;;;;;;;;;;;23.50;47.40;;;;;;5039394;28;22420;-67
2022/06/14 11:16:39;;;;;;;;;;;23.60;47.20;;;;;;5038577;28;19932;-68
2022/06/14 11:19:16;;;;;;;;;;;23.70;47.20;;;;;;5040287;28;19929;-66
2022/06/14 11:21:52;;;;;;;;;;;23.80;47.20;;;;;;5040915;28;20012;-70
2022/06/14 11:24:22;;;;;;;;;;;23.80;46.90;;;;;;5041994;28;19938;-71
2022/06/14 11:26:56;;;;;;;;;;;23.90;46.40;;;;;;5039887;28;19938;-69
2022/06/14 11:29:29;;;;;;;;;;;24.00;47.20;;;;;;5040724;28;20032;-68
2022/06/14 11:31:57;;;;;;;;;;;24.00;47.60;;;;;;5039642;28;20449;-71
2022/06/14 11:34:33;;;;;;;;;;;24.10;47.30;;;;;;5039709;28;19924;-70
2022/06/14 11:37:07;;;;;;;;;;;24.20;46.80;;;;;;5038205;28;20006;-69
2022/06/14 11:39:35;;;;;;;;;;;24.20;46.60;;;;;;5036457;28;19967;-69
2022/06/14 11:42:07;;;;;;;;;;;24.30;46.60;;;;;;5036918;28;19939;-68
2022/06/14 11:45:03;;;;;;;;;;;24.30;47.00;;;;;;5038569;28;19928;-67
2022/06/14 11:47:34;;;;;;;;;;;24.40;47.10;;;;;;4949887;28;21105;-67
2022/06/14 11:50:06;;;;;;;;;;;24.50;46.70;;;;;;5021051;28;19933;-68
2022/06/14 11:52:41;;;;;;;;;;;24.50;46.60;;;;;;5038651;28;19929;-69
2022/06/14 11:55:12;;;;;;;;;;;24.60;47.10;;;;;;5039541;28;20360;-67
2022/06/14 11:57:46;;;;;;;;;;;24.60;46.10;;;;;;5036615;28;19935;-68
2022/06/14 12:00:23;;;;;;;;;;;24.70;47.10;;;;;;5037697;28;20506;-68
2022/06/14 12:02:57;;;;;;;;;;;24.80;47.00;;;;;;5036549;28;20332;-66
2022/06/14 12:05:31;;;;;;;;;;;24.80;47.40;;;;;;5036970;28;19933;-70
2022/06/14 12:08:01;;;;;;;;;;;24.90;47.40;;;;;;5038475;28;19933;-69
2022/06/14 12:10:38;;;;;;;;;;;25.00;45.70;;;;;;5037547;28;19940;-69
2022/06/14 12:13:12;;;;;;;;;;;25.00;45.50;;;;;;5038100;28;19929;-69
2022/06/14 12:15:44;;;;;;;;;;;25.00;44.70;;;;;;5038945;28;20008;-67
2022/06/14 12:18:13;;;;;;;;;;;25.10;45.70;;;;;;5035820;28;19944;-69
2022/06/14 12:20:42;;;;;;;;;;;25.10;46.10;;;;;;5039724;28;20301;-67
2022/06/14 12:23:11;;;;;;;;;;;25.20;45.50;;;;;;5040012;28;19935;-69
2022/06/14 12:28:30;;;;;;;;;;;25.30;43.70;;;;;;5037784;28;19932;-67
2022/06/14 12:31:00;;;;;;;;;;;25.40;43.00;;;;;;5039953;28;19928;-69
2022/06/14 12:33:30;;;;;;;;;;;25.40;41.90;;;;;;5036469;28;19933;-67
2022/06/14 12:36:01;;;;;;;;;;;25.40;41.80;;;;;;5036293;28;19982;-68
2022/06/14 12:38:29;;;;;;;;;;;25.50;42.40;;;;;;5039200;28;20062;-70
2022/06/14 12:40:59;;;;;;;;;;;25.60;42.50;;;;;;5036781;28;20019;-67
2022/06/14 12:43:31;;;;;;;;;;;25.60;43.20;;;;;;5041361;28;19935;-69
2022/06/14 12:46:01;;;;;;;;;;;25.70;44.70;;;;;;5040108;28;20316;-70
2022/06/14 12:48:35;;;;;;;;;;;25.70;45.10;;;;;;5042725;28;19986;-70
2022/06/14 12:51:03;;;;;;;;;;;25.80;45.40;;;;;;5041947;28;20427;-69
2022/06/14 12:53:36;;;;;;;;;;;25.30;44.00;;;;;;5043965;28;20047;-66
2022/06/14 12:56:07;;;;;;;;;;;25.80;43.10;;;;;;5040557;28;19936;-73
2022/06/14 12:58:38;;;;;;;;;;;25.90;43.80;;;;;;5043850;28;20407;-69
2022/06/14 13:01:09;;;;;;;;;;;25.90;43.00;;;;;;5043319;28;19959;-66
2022/06/14 13:03:40;;;;;;;;;;;26.00;42.90;;;;;;5041650;28;19936;-65
2022/06/14 13:06:16;;;;;;;;;;;26.00;43.10;;;;;;5041199;28;19929;-66
2022/06/14 13:08:48;;;;;;;;;;;26.10;42.60;;;;;;5042487;28;20265;-66
2022/06/14 13:11:18;;;;;;;;;;;26.20;42.60;;;;;;5042971;28;19932;-67
2022/06/14 13:13:53;;;;;;;;;;;26.20;43.10;;;;;;5041667;28;19932;-66
2022/06/14 13:16:25;;;;;;;;;;;26.30;44.30;;;;;;5039489;28;19933;-68
2022/06/14 13:18:57;;;;;;;;;;;26.30;42.80;;;;;;5039283;28;19941;-69
2022/06/14 13:21:30;;;;;;;;;;;26.40;42.40;;;;;;5039031;28;19933;-69
2022/06/14 13:24:02;;;;;;;;;;;26.40;42.60;;;;;;5039692;28;19932;-67
2022/06/14 13:26:36;;;;;;;;;;;26.50;42.80;;;;;;5040233;28;19928;-69
2022/06/14 13:29:14;;;;;;;;;;;26.60;43.10;;;;;;5043083;28;19933;-68
2022/06/14 13:31:50;;;;;;;;;;;26.60;43.30;;;;;;5042778;28;19933;-66
2022/06/14 13:34:25;;;;;;;;;;;26.70;43.10;;;;;;5035769;28;19935;-65
2022/06/14 13:36:57;;;;;;;;;;;26.70;43.00;;;;;;5043394;28;19929;-68
2022/06/14 13:39:29;;;;;;;;;;;26.80;43.50;;;;;;5043785;28;19933;-69
2022/06/14 13:42:04;;;;;;;;;;;26.80;42.50;;;;;;5039983;28;19929;-68
2022/06/14 13:44:35;;;;;;;;;;;26.90;42.80;;;;;;5039849;28;19933;-66
2022/06/14 13:47:02;;;;;;;;;;;27.10;38.70;;;;;;5039862;28;20347;-66
2022/06/14 13:49:31;;;;;;;;;;;27.20;40.80;;;;;;5040359;28;19940;-66
2022/06/14 13:51:59;;;;;;;;;;;27.30;41.10;;;;;;5044272;28;20349;-68
2022/06/14 13:54:29;;;;;;;;;;;27.20;41.20;;;;;;5045236;28;19975;-68
2022/06/14 13:56:59;;;;;;;;;;;27.20;40.90;;;;;;5044890;28;19929;-68
2022/06/14 13:59:28;;;;;;;;;;;27.30;41.10;;;;;;5037910;28;19929;-68
2022/06/14 14:01:58;;;;;;;;;;;27.30;40.40;;;;;;5041950;28;19939;-69
2022/06/14 14:04:29;;;;;;;;;;;27.30;41.00;;;;;;5041107;28;19929;-68
2022/06/14 14:07:00;;;;;;;;;;;27.30;40.40;;;;;;5042283;28;19929;-69
2022/06/14 14:09:31;;;;;;;;;;;27.40;40.80;;;;;;5044915;28;20381;-69
2022/06/14 14:12:03;;;;;;;;;;;27.50;40.40;;;;;;5042500;28;19963;-70
2022/06/14 14:14:37;;;;;;;;;;;27.50;40.70;;;;;;5043664;28;19936;-67
2022/06/14 14:17:13;;;;;;;;;;;27.50;40.70;;;;;;5042399;28;19928;-68
2022/06/14 14:19:43;;;;;;;;;;;27.60;36.90;;;;;;5041085;28;19929;-68
2022/06/14 14:22:12;;;;;;;;;;;27.90;35.80;;;;;;5041816;28;19972;-68
2022/06/14 14:24:41;;;;;;;;;;;28.10;38.10;;;;;;5043535;28;19944;-68
2022/06/14 14:27:12;;;;;;;;;;;28.30;37.70;;;;;;5042932;28;19937;-65
2022/06/14 14:29:41;;;;;;;;;;;28.50;38.50;;;;;;5040849;28;19929;-66
2022/06/14 14:32:12;;;;;;;;;;;28.60;40.40;;;;;;5042347;28;19932;-67
2022/06/14 14:34:43;;;;;;;;;;;28.70;39.50;;;;;;5039108;28;19933;-69
2022/06/14 14:37:11;;;;;;;;;;;28.80;40.40;;;;;;5040348;28;20453;-67
2022/06/14 14:39:40;;;;;;;;;;;29.00;40.20;;;;;;5041582;28;19936;-66
2022/06/14 14:42:13;;;;;;;;;;;29.00;40.20;;;;;;5042053;28;21945;-67
2022/06/14 14:44:42;;;;;;;;;;;29.20;40.50;;;;;;5038237;28;19931;-67
2022/06/14 14:47:12;;;;;;;;;;;29.20;40.10;;;;;;5041610;28;19929;-67
2022/06/14 14:49:42;;;;;;;;;;;29.40;40.20;;;;;;5042005;28;19928;-66
2022/06/14 14:52:12;;;;;;;;;;;29.40;40.20;;;;;;5041755;28;20285;-67
2022/06/14 14:54:42;;;;;;;;;;;29.50;40.10;;;;;;5042607;28;19935;-68
2022/06/14 14:57:12;;;;;;;;;;;29.60;39.60;;;;;;5039144;28;19929;-68